Time;durP1;ratioP1;P1;durP2;ratioP2;P2;SDS_P1;SDS_P2;PMS_P1;PMS_P2;Temp;Humidity;BMP_temperature;BMP_pressure;BME280_temperature;BME280_humidity;BME280_pressure;Samples;Min_cycle;Max_cycle;Signal;HPM_P1;HPM_P2
2023/06/17 00:01:57;;;;;;;2.25;1.15;;;;;;;17.49;75.52;93949.19;4210783;28;20121;-58
2023/06/17 00:03:58;;;;;;;2.67;1.10;;;;;;;17.49;75.40;93951.81;4209654;28;20180;-56
2023/06/17 00:06:00;;;;;;;2.17;0.93;;;;;;;17.49;75.68;93949.19;4196170;28;20401;-56
2023/06/17 00:08:02;;;;;;;2.30;1.10;;;;;;;17.46;75.50;93952.25;4195488;28;20091;-53
2023/06/17 00:10:04;;;;;;;2.70;0.93;;;;;;;17.49;75.65;93945.72;4201643;28;20395;-53
2023/06/17 00:12:07;;;;;;;3.60;1.17;;;;;;;17.47;75.49;93945.94;4210055;28;20052;-56
2023/06/17 00:14:09;;;;;;;1.50;1.00;;;;;;;17.47;75.52;93940.63;4206991;28;20052;-56
2023/06/17 00:16:12;;;;;;;1.55;1.15;;;;;;;17.49;75.61;93943.88;4198771;28;20063;-55
2023/06/17 00:18:19;;;;;;;3.30;1.27;;;;;;;17.47;75.62;93942.47;4207436;28;20113;-55
2023/06/17 00:20:23;;;;;;;3.05;1.00;;;;;;;17.46;75.33;93946.94;4207530;28;20044;-55
2023/06/17 00:22:25;;;;;;;1.30;1.00;;;;;;;17.42;75.62;93940.47;4209953;28;20084;-55
2023/06/17 00:24:26;;;;;;;1.60;1.10;;;;;;;17.35;75.73;93939.75;4211940;28;20097;-55
2023/06/17 00:26:28;;;;;;;2.30;1.10;;;;;;;17.16;76.39;93939.72;4209469;28;20059;-56
2023/06/17 00:28:30;;;;;;;2.03;1.20;;;;;;;17.15;76.47;93926.72;4208385;28;20079;-55
2023/06/17 00:30:32;;;;;;;1.55;1.13;;;;;;;16.72;77.91;93928.25;4201591;28;20605;-57
2023/06/17 00:32:34;;;;;;;1.85;1.08;;;;;;;16.79;78.44;93926.38;4209253;28;20048;-52
2023/06/17 00:34:36;;;;;;;1.85;1.30;;;;;;;16.96;78.30;93931.94;4209479;28;20055;-56
2023/06/17 00:36:37;;;;;;;3.15;1.33;;;;;;;17.08;77.56;93931.22;4203141;28;20478;-56
2023/06/17 00:38:40;;;;;;;2.95;1.33;;;;;;;17.14;77.12;93933.00;4204190;28;20060;-57
2023/06/17 00:43:01;;;;;;;3.15;1.50;;;;;;;17.15;76.60;93940.75;4208743;28;20311;-54
2023/06/17 00:45:04;;;;;;;2.00;1.30;;;;;;;17.06;76.45;93939.41;4197729;28;20040;-55
2023/06/17 00:47:07;;;;;;;3.10;1.63;;;;;;;16.95;77.22;93935.63;4206617;28;20066;-56
2023/06/17 00:49:10;;;;;;;2.65;1.65;;;;;;;16.97;77.43;93932.75;4190871;28;20052;-55
2023/06/17 00:51:11;;;;;;;2.17;1.65;;;;;;;16.94;77.14;93935.84;4209806;28;20054;-54
2023/06/17 00:53:13;;;;;;;4.72;1.70;;;;;;;16.94;77.06;93935.84;4210127;28;20044;-55
2023/06/17 00:55:15;;;;;;;2.78;1.80;;;;;;;16.97;77.09;93935.41;4214253;28;20040;-54
2023/06/17 00:57:17;;;;;;;2.35;1.80;;;;;;;16.85;77.24;93931.88;4207623;28;20087;-56
2023/06/17 00:59:18;;;;;;;2.30;1.73;;;;;;;16.93;77.30;93927.09;4210958;28;20062;-57
2023/06/17 01:01:20;;;;;;;2.00;1.67;;;;;;;16.99;77.21;93928.06;4213116;28;20080;-55
2023/06/17 01:03:22;;;;;;;3.50;1.70;;;;;;;17.02;76.80;93930.28;4209331;28;20408;-57
2023/06/17 01:05:24;;;;;;;2.80;1.98;;;;;;;16.95;76.76;93927.69;4211850;28;20491;-58
2023/06/17 01:07:42;;;;;;;2.72;1.98;;;;;;;16.99;76.89;93928.88;4214394;28;20063;-56
2023/06/17 01:09:47;;;;;;;4.13;2.05;;;;;;;16.99;77.10;93920.13;4205291;28;20091;-57
2023/06/17 01:11:52;;;;;;;2.67;2.05;;;;;;;16.97;76.83;93924.81;4209870;28;20052;-57
2023/06/17 01:13:55;;;;;;;4.90;2.38;;;;;;;16.88;76.94;93928.78;4211696;28;20052;-57
2023/06/17 01:15:57;;;;;;;3.45;2.15;;;;;;;16.84;77.11;93920.44;4200970;28;20055;-57
2023/06/17 01:18:01;;;;;;;3.13;1.98;;;;;;;16.90;77.35;93926.72;4211325;28;20084;-58
2023/06/17 01:20:05;;;;;;;2.30;2.10;;;;;;;17.01;77.12;93914.63;4211108;28;20106;-58
2023/06/17 01:22:10;;;;;;;5.25;2.15;;;;;;;17.06;76.76;93914.78;4212355;28;20446;-55
2023/06/17 01:24:12;;;;;;;3.20;1.90;;;;;;;17.06;76.13;93926.19;4212111;28;20051;-57
2023/06/17 01:26:16;;;;;;;2.40;2.00;;;;;;;17.12;76.33;93925.31;4209806;28;20044;-57
2023/06/17 01:28:19;;;;;;;2.50;1.90;;;;;;;17.10;76.06;93927.38;4204727;28;20048;-56
2023/06/17 01:30:20;;;;;;;3.78;2.13;;;;;;;17.02;76.16;93930.28;4210080;28;20048;-55
2023/06/17 01:32:23;;;;;;;2.80;2.00;;;;;;;17.02;76.21;93932.94;4207688;28;20044;-59
2023/06/17 01:34:33;;;;;;;3.55;1.90;;;;;;;16.94;76.38;93922.63;4211708;28;20510;-56
2023/06/17 01:36:36;;;;;;;2.25;1.95;;;;;;;17.01;76.79;93925.22;4208724;28;20124;-60
2023/06/17 01:38:39;;;;;;;2.87;2.03;;;;;;;17.06;76.52;93928.81;4189239;28;20059;-56
2023/06/17 01:40:42;;;;;;;1.90;1.70;;;;;;;17.13;76.46;93931.41;4200298;28;20044;-57
2023/06/17 01:42:45;;;;;;;3.63;2.00;;;;;;;17.15;76.31;93916.94;4200125;28;20102;-56
2023/06/17 01:44:47;;;;;;;3.97;1.60;;;;;;;17.11;76.41;93921.03;4207670;28;20044;-58
2023/06/17 01:46:49;;;;;;;2.63;1.77;;;;;;;17.13;76.36;93918.19;4210900;28;20056;-59
2023/06/17 01:48:53;;;;;;;4.05;2.10;;;;;;;17.13;76.13;93920.81;4212573;28;20048;-56
2023/06/17 01:50:55;;;;;;;2.05;1.85;;;;;;;17.10;76.09;93911.50;4213726;28;20059;-56
2023/06/17 01:52:56;;;;;;;2.97;2.10;;;;;;;17.16;76.19;93910.63;4213548;28;20098;-55
2023/06/17 01:54:59;;;;;;;1.95;1.65;;;;;;;17.18;76.53;93913.81;4201935;28;20047;-57
2023/06/17 01:57:01;;;;;;;2.72;2.05;;;;;;;17.10;76.90;93910.66;4211875;28;20070;-56
2023/06/17 01:59:02;;;;;;;2.83;2.00;;;;;;;17.01;77.13;93907.50;4207813;28;20052;-57
2023/06/17 02:01:04;;;;;;;2.88;1.92;;;;;;;16.96;77.10;93916.06;4198669;28;20102;-53
2023/06/17 02:03:06;;;;;;;2.28;1.83;;;;;;;16.92;77.56;93904.31;4211829;28;20048;-57
2023/06/17 02:05:08;;;;;;;3.53;2.33;;;;;;;16.93;77.99;93913.88;4198288;28;20044;-58
2023/06/17 02:07:10;;;;;;;2.40;2.15;;;;;;;16.94;78.12;93904.09;4205909;28;20271;-54
2023/06/17 02:09:13;;;;;;;6.47;2.40;;;;;;;16.97;78.23;93917.72;4212404;28;20048;-56
2023/06/17 02:11:15;;;;;;;4.03;2.00;;;;;;;16.89;78.16;93903.94;4211013;28;20117;-55
2023/06/17 02:13:16;;;;;;;3.40;2.08;;;;;;;16.85;78.67;93903.56;4199632;28;20060;-55
2023/06/17 02:15:18;;;;;;;3.08;2.20;;;;;;;16.84;78.57;93906.41;4206118;28;20089;-55
2023/06/17 02:17:20;;;;;;;2.80;2.28;;;;;;;16.90;78.69;93913.50;4204101;28;20048;-53
2023/06/17 02:19:22;;;;;;;3.03;2.17;;;;;;;16.94;78.80;93906.75;4205295;28;20498;-58
2023/06/17 02:21:24;;;;;;;4.05;2.17;;;;;;;16.99;79.12;93905.06;4213218;28;20112;-53
2023/06/17 02:23:26;;;;;;;4.40;2.20;;;;;;;17.01;78.77;93912.78;4211772;28;20054;-57
2023/06/17 02:25:28;;;;;;;2.92;1.90;;;;;;;17.02;78.33;93910.97;4203867;28;20036;-58
2023/06/17 02:27:29;;;;;;;3.83;2.10;;;;;;;17.05;78.53;93908.66;4213290;28;20504;-57
2023/06/17 02:29:31;;;;;;;2.70;2.00;;;;;;;17.03;78.82;93920.50;4212239;28;20048;-56
2023/06/17 02:31:33;;;;;;;2.67;2.03;;;;;;;17.00;78.27;93921.75;4201787;28;20048;-57
2023/06/17 02:33:36;;;;;;;3.50;1.90;;;;;;;17.01;78.57;93912.78;4204562;28;20077;-57
2023/06/17 02:35:37;;;;;;;2.72;2.15;;;;;;;16.98;78.67;93908.72;4210341;28;20052;-57
2023/06/17 02:37:40;;;;;;;2.20;1.80;;;;;;;16.99;79.10;93918.31;4212012;28;20048;-57
2023/06/17 02:39:42;;;;;;;2.38;1.77;;;;;;;17.03;78.82;93908.06;4206924;28;20417;-54
2023/06/17 02:41:44;;;;;;;2.30;1.80;;;;;;;17.01;78.82;93910.13;4211012;28;20082;-55
2023/06/17 02:43:45;;;;;;;2.33;1.92;;;;;;;16.98;78.53;93918.50;4204211;28;20050;-53
2023/06/17 02:45:47;;;;;;;4.75;1.90;;;;;;;16.93;78.58;93916.53;4209895;28;20046;-56
2023/06/17 02:47:49;;;;;;;2.78;1.92;;;;;;;16.86;78.40;93915.75;4207115;28;20476;-56
2023/06/17 02:49:51;;;;;;;2.60;1.58;;;;;;;16.83;78.56;93920.69;4205991;28;20040;-54
2023/06/17 02:51:53;;;;;;;3.40;1.75;;;;;;;16.72;78.66;93920.31;4208597;28;20044;-55
2023/06/17 02:53:55;;;;;;;2.80;1.65;;;;;;;16.66;79.00;93918.53;4211504;28;20133;-54
2023/06/17 02:55:56;;;;;;;2.10;1.65;;;;;;;16.64;79.33;93917.13;4206454;28;20092;-57
2023/06/17 02:57:58;;;;;;;2.83;1.90;;;;;;;16.68;79.70;93911.19;4212587;28;20101;-54
2023/06/17 03:00:00;;;;;;;6.95;1.90;;;;;;;16.69;79.48;93922.59;4210397;28;20213;-56
2023/06/17 03:02:01;;;;;;;3.38;1.95;;;;;;;16.70;79.70;93917.09;4211033;28;20043;-58
2023/06/17 03:04:04;;;;;;;2.42;1.70;;;;;;;16.65;79.33;93926.69;4204818;28;20055;-57
2023/06/17 03:06:07;;;;;;;3.95;1.77;;;;;;;16.61;79.74;93928.16;4204539;28;20044;-55
2023/06/17 03:08:09;;;;;;;2.22;1.80;;;;;;;16.66;79.75;93923.84;4210862;28;20134;-55
2023/06/17 03:10:10;;;;;;;3.30;2.00;;;;;;;16.69;79.79;93922.59;4204295;28;20543;-55
2023/06/17 03:12:12;;;;;;;4.85;1.83;;;;;;;16.69;79.68;93931.34;4202613;28;20445;-51
2023/06/17 03:14:19;;;;;;;2.50;1.80;;;;;;;16.75;79.71;93930.47;4211669;28;20055;-55
2023/06/17 03:16:24;;;;;;;3.00;1.90;;;;;;;16.72;79.55;93928.25;4203411;28;20044;-53
2023/06/17 03:18:26;;;;;;;4.20;2.08;;;;;;;16.70;79.34;93935.59;4211851;28;20052;-55
2023/06/17 03:20:30;;;;;;;2.40;2.20;;;;;;;16.68;79.18;93932.34;4210032;28;20139;-58
2023/06/17 03:22:33;;;;;;;2.13;1.83;;;;;;;16.67;79.28;93940.50;4202287;28;20121;-59
2023/06/17 03:24:35;;;;;;;3.10;2.08;;;;;;;16.71;79.65;93945.16;4208571;28;20685;-58
2023/06/17 03:26:37;;;;;;;2.42;2.03;;;;;;;16.71;79.47;93942.53;4211681;28;20109;-57
2023/06/17 03:28:39;;;;;;;2.80;2.30;;;;;;;16.73;79.63;93937.81;4211559;28;20055;-59
2023/06/17 03:30:40;;;;;;;2.60;2.28;;;;;;;16.80;79.46;93943.09;4210809;28;20043;-56
2023/06/17 03:32:44;;;;;;;2.47;2.20;;;;;;;16.76;79.38;93942.69;4210727;28;20052;-57
2023/06/17 03:34:46;;;;;;;5.45;2.63;;;;;;;16.74;79.24;93944.72;4210774;28;20083;-59
2023/06/17 03:36:49;;;;;;;3.30;2.40;;;;;;;16.73;79.26;93943.09;4212111;28;20097;-58
2023/06/17 03:38:51;;;;;;;2.60;2.40;;;;;;;16.66;79.34;93938.91;4211455;28;20596;-59
2023/06/17 03:40:52;;;;;;;3.33;2.22;;;;;;;16.65;79.43;93939.91;4211209;28;20479;-58
2023/06/17 03:42:54;;;;;;;2.50;2.10;;;;;;;16.64;79.47;93944.38;4211774;28;20048;-58
2023/06/17 03:44:56;;;;;;;2.45;2.25;;;;;;;16.65;79.57;93958.41;4205342;28;20055;-57
2023/06/17 03:46:59;;;;;;;4.82;2.40;;;;;;;16.63;79.58;93949.88;4206773;28;20615;-58
2023/06/17 03:49:02;;;;;;;5.85;2.35;;;;;;;16.69;79.78;93951.69;4210038;28;20048;-59
2023/06/17 03:51:04;;;;;;;4.65;2.45;;;;;;;16.70;79.31;93945.38;4212055;28;20164;-59
2023/06/17 03:53:08;;;;;;;2.97;2.33;;;;;;;16.71;79.45;93947.81;4210613;28;20485;-57
2023/06/17 03:55:10;;;;;;;2.78;2.33;;;;;;;16.73;79.39;93955.50;4211265;28;20935;-57
2023/06/17 03:57:12;;;;;;;5.45;2.60;;;;;;;16.74;79.24;93957.94;4210998;28;20109;-59
2023/06/17 03:59:15;;;;;;;4.40;2.22;;;;;;;16.77;79.47;93962.00;4209437;28;20044;-57
2023/06/17 04:01:16;;;;;;;2.30;2.03;;;;;;;16.79;79.18;93962.59;4202223;28;20104;-58
2023/06/17 04:03:18;;;;;;;2.30;2.08;;;;;;;16.79;79.14;93963.41;4211078;28;20056;-60
2023/06/17 04:05:20;;;;;;;5.07;1.83;;;;;;;16.82;79.11;93958.72;4206620;28;20121;-58
2023/06/17 04:07:22;;;;;;;2.35;2.10;;;;;;;16.84;78.97;93967.25;4199301;28;20452;-59
2023/06/17 04:09:24;;;;;;;2.25;1.80;;;;;;;16.88;78.95;93971.91;4200356;28;20129;-58
2023/06/17 04:11:26;;;;;;;2.55;1.75;;;;;;;16.88;78.66;93971.91;4209735;28;20051;-58
2023/06/17 04:13:28;;;;;;;3.05;1.45;;;;;;;16.83;78.15;93973.59;4198164;28;20434;-59
2023/06/17 04:15:29;;;;;;;1.90;1.42;;;;;;;16.74;78.27;93976.47;4202635;28;20040;-58
2023/06/17 04:17:31;;;;;;;2.20;1.88;;;;;;;16.77;78.65;93983.16;4210080;28;20101;-59
2023/06/17 04:19:37;;;;;;;1.80;1.50;;;;;;;16.84;78.74;93977.84;4210312;28;20048;-60
2023/06/17 04:21:40;;;;;;;2.75;1.40;;;;;;;16.87;78.50;93980.88;4206415;28;20419;-59
2023/06/17 04:23:42;;;;;;;2.57;1.50;;;;;;;16.88;77.99;93979.03;4208154;28;20056;-58
2023/06/17 04:25:43;;;;;;;2.20;1.30;;;;;;;16.85;78.03;93979.47;4211334;28;20569;-58
2023/06/17 04:27:45;;;;;;;2.17;1.23;;;;;;;16.90;78.05;93987.56;4211948;28;20056;-58
2023/06/17 04:29:47;;;;;;;1.58;0.98;;;;;;;16.90;77.72;93982.28;4213148;28;20490;-58
2023/06/17 04:31:49;;;;;;;1.38;1.10;;;;;;;16.93;77.51;93980.03;4213952;28;20123;-58
2023/06/17 04:33:52;;;;;;;2.80;1.15;;;;;;;16.96;77.70;93992.00;4213836;28;20406;-59
2023/06/17 04:35:55;;;;;;;2.92;1.17;;;;;;;16.92;77.56;93991.63;4214130;28;20131;-59
2023/06/17 04:37:57;;;;;;;1.85;1.00;;;;;;;16.92;77.53;93991.63;4214039;28;20052;-57
2023/06/17 04:39:59;;;;;;;1.25;1.00;;;;;;;16.91;77.53;93997.94;4214794;28;20496;-57
2023/06/17 04:42:01;;;;;;;1.35;1.10;;;;;;;16.87;77.63;93994.09;4211668;28;20349;-61
2023/06/17 04:44:03;;;;;;;1.60;1.10;;;;;;;16.89;77.13;93999.19;4212046;28;20075;-57
2023/06/17 04:46:04;;;;;;;1.83;1.20;;;;;;;16.88;77.33;93995.72;4212350;28;20473;-59
2023/06/17 04:48:06;;;;;;;2.00;1.30;;;;;;;16.87;77.48;93993.31;4214630;28;20055;-60
2023/06/17 04:50:08;;;;;;;3.60;1.20;;;;;;;16.86;77.42;93999.59;4212470;28;20087;-59
2023/06/17 04:52:11;;;;;;;1.77;0.90;;;;;;;16.88;77.59;93998.34;4206743;28;20048;-60
2023/06/17 04:54:12;;;;;;;1.83;1.02;;;;;;;16.89;77.31;94001.84;4214234;28;20130;-59
2023/06/17 04:56:14;;;;;;;2.10;1.25;;;;;;;16.86;77.38;93994.31;4213780;28;20414;-60
2023/06/17 04:58:16;;;;;;;2.78;1.00;;;;;;;16.89;77.76;93996.53;4204213;28;20048;-60
2023/06/17 05:00:18;;;;;;;1.60;1.08;;;;;;;16.89;77.99;94005.28;4203932;28;20058;-58
2023/06/17 05:02:23;;;;;;;1.60;1.00;;;;;;;16.91;78.03;93997.94;4213835;28;20412;-60
2023/06/17 05:04:25;;;;;;;1.20;0.80;;;;;;;16.88;78.00;94002.84;4213247;28;20078;-59
2023/06/17 05:06:26;;;;;;;1.77;1.05;;;;;;;16.78;78.25;94001.47;4212192;28;20043;-56
2023/06/17 05:08:28;;;;;;;1.13;0.82;;;;;;;16.76;78.69;93997.41;4204281;28;20044;-57
2023/06/17 05:10:30;;;;;;;1.75;0.98;;;;;;;16.78;78.82;94001.47;4207937;28;20056;-55
2023/06/17 05:12:31;;;;;;;1.58;0.90;;;;;;;16.84;79.10;93996.34;4209639;28;20046;-57
2023/06/17 05:14:33;;;;;;;1.63;1.10;;;;;;;16.85;79.29;94003.28;4212466;28;20136;-54
2023/06/17 05:16:35;;;;;;;2.28;1.00;;;;;;;16.88;79.29;94002.84;4200649;28;20052;-58
2023/06/17 05:18:37;;;;;;;3.42;1.27;;;;;;;16.91;79.28;94005.88;4213258;28;20085;-60
2023/06/17 05:20:38;;;;;;;3.08;1.35;;;;;;;16.87;79.24;94001.25;4211606;28;20087;-60
2023/06/17 05:22:40;;;;;;;2.28;1.10;;;;;;;16.90;79.11;94006.09;4202962;28;20047;-59
2023/06/17 05:24:42;;;;;;;1.70;0.90;;;;;;;16.90;78.77;94009.53;4212965;28;20405;-59
2023/06/17 05:26:44;;;;;;;2.55;0.98;;;;;;;16.82;78.67;94009.81;4213810;28;20488;-58
2023/06/17 05:28:45;;;;;;;1.17;0.80;;;;;;;16.83;78.94;94014.06;4212744;28;20061;-57
2023/06/17 05:30:47;;;;;;;1.50;0.80;;;;;;;16.80;78.90;94014.50;4212844;28;20048;-59
2023/06/17 05:32:49;;;;;;;1.92;0.98;;;;;;;16.76;79.01;94016.72;4212551;28;20063;-60
2023/06/17 05:34:51;;;;;;;1.23;0.80;;;;;;;16.69;79.05;94015.97;4212171;28;20058;-60
2023/06/17 05:36:52;;;;;;;2.00;1.00;;;;;;;16.68;79.78;94019.63;4212933;28;20071;-59
2023/06/17 05:38:55;;;;;;;2.67;1.25;;;;;;;16.73;79.64;94019.78;4213371;28;20437;-59
2023/06/17 05:40:57;;;;;;;1.70;1.10;;;;;;;16.74;79.24;94018.78;4211386;28;20444;-59
2023/06/17 05:42:59;;;;;;;2.00;1.00;;;;;;;16.77;79.26;94021.00;4213264;28;20127;-59
2023/06/17 05:45:01;;;;;;;3.25;1.10;;;;;;;16.75;79.23;94017.75;4212215;28;20055;-61
2023/06/17 05:47:02;;;;;;;1.90;0.90;;;;;;;16.79;79.40;94012.84;4201246;28;20137;-62
2023/06/17 05:49:04;;;;;;;2.63;0.80;;;;;;;16.82;79.22;94016.94;4211664;28;20109;-61
2023/06/17 05:51:06;;;;;;;1.75;0.90;;;;;;;16.76;79.20;94016.72;4213451;28;20067;-59
2023/06/17 05:53:08;;;;;;;2.20;1.05;;;;;;;16.64;79.34;94014.97;4213570;28;20048;-59
2023/06/17 05:55:10;;;;;;;2.45;1.27;;;;;;;16.62;79.84;94019.66;4203291;28;20074;-59
2023/06/17 05:57:11;;;;;;;1.25;0.95;;;;;;;16.55;79.92;94011.78;4210798;28;20045;-61
2023/06/17 05:59:13;;;;;;;1.67;1.00;;;;;;;16.57;80.12;94012.38;4210497;28;20054;-59
2023/06/17 06:01:19;;;;;;;2.20;1.23;;;;;;;16.55;80.10;94015.22;4212496;28;20154;-60
2023/06/17 06:03:21;;;;;;;2.88;1.00;;;;;;;16.56;80.26;94013.38;4209662;28;20504;-61
2023/06/17 06:05:22;;;;;;;2.05;0.98;;;;;;;16.49;80.85;94016.06;4210384;28;20052;-59
2023/06/17 06:07:24;;;;;;;1.90;0.90;;;;;;;16.53;80.88;94011.19;4212111;28;20044;-60
2023/06/17 06:09:26;;;;;;;4.75;1.17;;;;;;;16.57;80.83;94013.19;4211723;28;20363;-59
2023/06/17 06:11:28;;;;;;;1.48;0.90;;;;;;;16.63;80.76;94008.91;4200058;28;20079;-59
2023/06/17 06:13:29;;;;;;;2.30;1.20;;;;;;;16.62;80.35;94009.91;4213016;28;20401;-60
2023/06/17 06:15:32;;;;;;;2.25;1.00;;;;;;;16.59;80.40;94012.97;4212326;28;20040;-59
2023/06/17 06:17:34;;;;;;;2.72;1.17;;;;;;;16.60;80.78;94011.94;4208854;28;20131;-59
2023/06/17 06:19:36;;;;;;;2.10;1.25;;;;;;;16.67;80.72;94007.44;4207706;28;20117;-58
2023/06/17 06:21:37;;;;;;;1.70;1.00;;;;;;;16.71;80.72;94015.75;4207214;28;20097;-58
2023/06/17 06:23:39;;;;;;;2.35;1.20;;;;;;;16.73;80.22;94013.69;4212161;28;20138;-59
2023/06/17 06:25:41;;;;;;;2.03;1.05;;;;;;;16.79;80.55;94016.28;4210836;28;20768;-60
2023/06/17 06:27:43;;;;;;;3.35;0.90;;;;;;;16.84;80.23;94020.97;4213172;28;20544;-61
2023/06/17 06:29:44;;;;;;;1.90;1.00;;;;;;;16.88;79.99;94026.66;4210444;28;20072;-60
2023/06/17 06:31:46;;;;;;;2.47;1.10;;;;;;;16.91;80.01;94027.03;4212074;28;20123;-60
2023/06/17 06:33:48;;;;;;;1.65;1.00;;;;;;;16.94;79.85;94031.91;4212416;28;20432;-60
2023/06/17 06:35:49;;;;;;;4.30;1.13;;;;;;;16.95;79.52;94036.19;4212548;28;20089;-60
2023/06/17 06:37:51;;;;;;;1.42;1.00;;;;;;;16.94;79.49;94034.53;4207706;28;20040;-59
2023/06/17 06:39:53;;;;;;;2.47;0.98;;;;;;;17.00;79.33;94032.88;4212264;28;20079;-60
2023/06/17 06:41:55;;;;;;;2.13;1.20;;;;;;;16.98;79.13;94032.28;4212639;28;20470;-61
2023/06/17 06:43:57;;;;;;;1.60;0.98;;;;;;;16.97;79.42;94034.13;4207074;28;20102;-59
2023/06/17 06:45:59;;;;;;;1.52;0.95;;;;;;;16.96;79.25;94032.50;4208383;28;21041;-62
2023/06/17 06:48:01;;;;;;;2.50;1.05;;;;;;;17.02;79.36;94043.25;4208412;28;20051;-62
2023/06/17 06:50:03;;;;;;;3.65;1.00;;;;;;;17.03;79.22;94035.09;4203277;28;20474;-60
2023/06/17 06:52:05;;;;;;;1.42;0.90;;;;;;;17.09;79.16;94036.06;4211132;28;20052;-62
2023/06/17 06:54:07;;;;;;;2.17;1.27;;;;;;;17.14;79.00;94036.22;4201707;28;20596;-59
2023/06/17 06:56:08;;;;;;;1.90;1.00;;;;;;;17.13;78.29;94045.22;4201682;28;20497;-60
2023/06/17 06:58:10;;;;;;;2.72;1.20;;;;;;;17.07;78.74;94033.63;4211586;28;20050;-60
2023/06/17 07:00:12;;;;;;;1.85;1.20;;;;;;;17.03;78.79;94032.44;4209147;28;20080;-62
2023/06/17 07:02:14;;;;;;;1.33;1.00;;;;;;;17.10;78.89;94038.50;4211753;28;20126;-61
2023/06/17 07:04:16;;;;;;;4.10;1.33;;;;;;;17.14;78.38;94034.41;4211608;28;20490;-59
2023/06/17 07:06:18;;;;;;;1.40;0.90;;;;;;;17.24;78.57;94027.81;4211765;28;20067;-63
2023/06/17 07:08:20;;;;;;;1.90;1.20;;;;;;;17.34;78.44;94030.78;4212559;28;20052;-59
2023/06/17 07:10:22;;;;;;;1.15;0.80;;;;;;;17.37;77.98;94028.50;4209664;28;20052;-61
2023/06/17 07:12:24;;;;;;;1.35;0.95;;;;;;;17.34;78.10;94020.19;4212359;28;20052;-60
2023/06/17 07:14:25;;;;;;;1.98;1.15;;;;;;;17.37;77.78;94017.91;4211366;28;20511;-60
2023/06/17 07:16:27;;;;;;;3.17;1.30;;;;;;;17.36;77.83;94024.25;4207283;28;20048;-60
2023/06/17 07:18:29;;;;;;;1.70;1.10;;;;;;;17.31;78.15;94025.91;4212015;28;20048;-59
2023/06/17 07:20:30;;;;;;;2.97;1.33;;;;;;;17.32;78.21;94024.91;4210336;28;20486;-59
2023/06/17 07:22:32;;;;;;;2.10;1.30;;;;;;;17.36;77.92;94032.19;4212531;28;20497;-60
2023/06/17 07:24:34;;;;;;;3.53;1.10;;;;;;;17.34;78.07;94028.16;4210764;28;20048;-60
2023/06/17 07:26:36;;;;;;;1.30;1.02;;;;;;;17.36;77.81;94032.19;4202793;28;20131;-59
2023/06/17 07:28:37;;;;;;;3.35;0.90;;;;;;;17.41;77.88;94034.19;4202024;28;20051;-59
2023/06/17 07:30:40;;;;;;;1.50;1.00;;;;;;;17.37;77.36;94033.00;4211110;28;20051;-58
2023/06/17 07:32:42;;;;;;;2.45;1.30;;;;;;;17.38;77.56;94034.63;4211368;28;20083;-57
2023/06/17 07:34:44;;;;;;;3.00;1.30;;;;;;;17.37;78.08;94035.63;4210415;28;20048;-59
2023/06/17 07:36:46;;;;;;;2.22;1.23;;;;;;;17.33;78.18;94042.41;4211501;28;20052;-59
2023/06/17 07:38:48;;;;;;;1.52;1.00;;;;;;;17.36;77.91;94036.69;4207040;28;20521;-55
2023/06/17 07:40:50;;;;;;;1.42;0.90;;;;;;;17.39;77.65;94034.38;4209151;28;20386;-58
2023/06/17 07:42:52;;;;;;;2.63;1.23;;;;;;;17.48;78.04;94026.97;4211582;28;20501;-58
2023/06/17 07:44:54;;;;;;;1.77;1.13;;;;;;;17.52;78.19;94036.09;4210308;28;20624;-57
2023/06/17 07:46:56;;;;;;;1.83;1.05;;;;;;;17.58;77.24;94035.25;4207271;28;20048;-60
2023/06/17 07:48:57;;;;;;;1.20;0.82;;;;;;;17.54;77.41;94049.13;4211005;28;20488;-57
2023/06/17 07:50:59;;;;;;;1.73;0.98;;;;;;;17.63;77.52;94050.47;4210973;28;20101;-58
2023/06/17 07:53:01;;;;;;;2.40;0.90;;;;;;;17.75;77.51;94056.69;4206738;28;20052;-55
2023/06/17 07:55:04;;;;;;;1.80;1.05;;;;;;;17.90;77.19;94052.91;4199125;28;20047;-58
2023/06/17 07:57:08;;;;;;;3.17;1.50;;;;;;;18.02;77.35;94051.13;4210032;28;20486;-60
2023/06/17 07:59:10;;;;;;;1.90;1.20;;;;;;;18.02;76.64;94040.53;4209275;28;20052;-59
2023/06/17 08:01:12;;;;;;;3.03;1.77;;;;;;;17.99;76.08;94057.69;4208663;28;20672;-61
2023/06/17 08:03:14;;;;;;;2.08;0.90;;;;;;;17.99;76.64;94044.44;4208838;28;20048;-60
2023/06/17 08:05:16;;;;;;;1.77;1.10;;;;;;;18.06;76.89;94048.84;4208907;28;20143;-59
2023/06/17 08:07:20;;;;;;;2.78;1.10;;;;;;;18.11;76.96;94051.63;4211871;28;20101;-59
2023/06/17 08:09:21;;;;;;;1.10;0.70;;;;;;;18.11;76.20;94049.81;4209308;28;20058;-56
2023/06/17 08:11:23;;;;;;;2.08;0.80;;;;;;;18.03;75.75;94047.47;4209702;28;20097;-58
2023/06/17 08:13:25;;;;;;;1.95;0.90;;;;;;;18.04;76.07;94056.22;4208741;28;20063;-53
2023/06/17 08:15:27;;;;;;;6.03;0.80;;;;;;;17.90;75.66;94058.22;4210744;28;20080;-58
2023/06/17 08:17:28;;;;;;;0.98;0.65;;;;;;;17.89;76.00;94054.72;4204891;28;20483;-60
2023/06/17 08:19:30;;;;;;;1.52;0.70;;;;;;;17.88;76.40;94066.38;4204236;28;20048;-58
2023/06/17 08:21:34;;;;;;;3.60;0.90;;;;;;;17.89;76.81;94064.53;4211248;28;20043;-59
2023/06/17 08:23:35;;;;;;;2.05;0.95;;;;;;;17.87;76.92;94069.22;4209086;28;20052;-60
2023/06/17 08:25:39;;;;;;;1.77;1.00;;;;;;;17.87;76.68;94064.72;4207377;28;20049;-60
2023/06/17 08:27:44;;;;;;;1.80;1.15;;;;;;;17.92;76.73;94067.56;4199237;28;20051;-57
2023/06/17 08:29:45;;;;;;;2.40;1.67;;;;;;;17.90;76.60;94066.16;4208917;28;20093;-59
2023/06/17 08:31:51;;;;;;;1.35;0.90;;;;;;;17.90;76.27;94066.16;4200549;28;20463;-59
2023/06/17 08:33:53;;;;;;;1.80;1.13;;;;;;;17.90;76.62;94071.47;4205963;28;20055;-56
2023/06/17 08:35:54;;;;;;;2.03;1.17;;;;;;;17.83;76.67;94062.75;4211348;28;20227;-59
2023/06/17 08:37:56;;;;;;;3.22;1.08;;;;;;;17.74;77.04;94062.19;4204223;28;20538;-55
2023/06/17 08:39:58;;;;;;;2.45;1.33;;;;;;;17.70;77.59;94063.66;4203926;28;20052;-58
2023/06/17 08:41:59;;;;;;;2.17;1.40;;;;;;;17.77;78.09;94067.06;4208743;28;20420;-56
2023/06/17 08:44:01;;;;;;;2.00;1.30;;;;;;;17.72;77.82;94061.59;4205187;28;20067;-59
2023/06/17 08:46:03;;;;;;;3.40;1.10;;;;;;;17.74;77.55;94075.44;4206333;28;20129;-59
2023/06/17 08:48:05;;;;;;;2.13;1.40;;;;;;;17.85;77.63;94066.78;4206754;28;20111;-58
2023/06/17 08:50:08;;;;;;;1.77;1.48;;;;;;;17.90;77.53;94074.91;4209073;28;20048;-58
2023/06/17 08:52:11;;;;;;;2.67;1.80;;;;;;;17.89;77.87;94069.81;4208032;28;20040;-56
2023/06/17 08:54:13;;;;;;;7.88;1.70;;;;;;;17.93;77.60;94069.16;4208962;28;20054;-60
2023/06/17 08:56:14;;;;;;;1.88;1.33;;;;;;;17.95;77.88;94074.25;4196821;28;20056;-59
2023/06/17 08:58:16;;;;;;;2.85;2.00;;;;;;;18.06;77.81;94070.06;4209342;28;20048;-59
2023/06/17 09:00:18;;;;;;;1.98;1.70;;;;;;;18.00;77.66;94064.63;4210582;28;20044;-59
2023/06/17 09:02:21;;;;;;;2.83;1.83;;;;;;;18.02;77.88;94067.03;4210576;28;20058;-59
2023/06/17 09:04:23;;;;;;;2.08;1.58;;;;;;;17.89;77.14;94067.97;4208637;28;20044;-59
2023/06/17 09:06:28;;;;;;;1.85;1.60;;;;;;;17.93;77.59;94063.84;4210115;28;20498;-58
2023/06/17 09:08:32;;;;;;;3.25;2.00;;;;;;;17.96;78.20;94070.56;4210863;28;20075;-57
2023/06/17 09:10:42;;;;;;;2.83;2.10;;;;;;;17.99;78.14;94067.47;4209083;28;20429;-59
2023/06/17 09:12:43;;;;;;;2.40;1.92;;;;;;;17.98;78.21;94064.03;4210031;28;20048;-57
2023/06/17 09:14:45;;;;;;;1.92;1.55;;;;;;;17.90;77.73;94063.50;4199722;28;20067;-58
2023/06/17 09:16:49;;;;;;;2.20;1.90;;;;;;;17.82;78.25;94059.28;4212246;28;20089;-56
2023/06/17 09:18:53;;;;;;;;;;;;;;;17.86;78.35;94063.13;4206848;28;20482;-60
2023/06/17 09:20:55;;;;;;;3.08;2.20;;;;;;;17.84;78.18;94054.59;4214066;28;19955;-57
2023/06/17 09:22:57;;;;;;;2.05;1.65;;;;;;;17.81;78.14;94062.94;4212613;28;20561;-59
2023/06/17 09:24:59;;;;;;;2.80;1.90;;;;;;;17.81;78.85;94060.31;4211445;28;20066;-60
2023/06/17 09:27:02;;;;;;;3.10;1.77;;;;;;;17.88;78.50;94060.25;4204015;28;20097;-58
2023/06/17 09:29:11;;;;;;;2.80;1.90;;;;;;;17.76;78.45;94063.59;4213517;28;20371;-57
2023/06/17 09:31:13;;;;;;;3.00;1.77;;;;;;;17.77;78.37;94056.47;4199384;28;20270;-57
2023/06/17 09:33:20;;;;;;;1.83;1.58;;;;;;;17.88;78.42;94061.06;4213171;28;20083;-59
2023/06/17 09:35:22;;;;;;;2.83;1.50;;;;;;;17.97;77.68;94062.38;4212951;28;20113;-61
2023/06/17 09:37:25;;;;;;;3.58;1.80;;;;;;;18.05;77.35;94060.47;4213628;28;20479;-57
2023/06/17 09:39:30;;;;;;;1.70;1.40;;;;;;;18.01;76.83;94066.22;4212837;28;20081;-59